Time;durP1;ratioP1;P1;durP2;ratioP2;P2;SDS_P1;SDS_P2;PMS_P1;PMS_P2;Temp;Humidity;BMP_temperature;BMP_pressure;BME280_temperature;BME280_humidity;BME280_pressure;Samples;Min_cycle;Max_cycle;Signal;HPM_P1;HPM_P2
2024/04/03 00:01:32;;;;;;;10.00;3.80;;;;;;;;;;6135769;23;20510;-70
2024/04/03 00:03:58;;;;;;;15.27;4.45;;;;;;;;;;6148738;23;20471;-70
2024/04/03 00:06:23;;;;;;;10.57;3.72;;;;;;;;;;6148927;23;20881;-70
2024/04/03 00:08:48;;;;;;;10.07;4.40;;;;;;;;;;6141722;23;20025;-69
2024/04/03 00:11:14;;;;;;;9.75;4.07;;;;;;;;;;6149746;23;20023;-70
2024/04/03 00:13:39;;;;;;;7.68;4.25;;;;;;;;;;6139794;23;20435;-70
2024/04/03 00:16:05;;;;;;;8.27;3.80;;;;;;;;;;6146123;23;20021;-71
2024/04/03 00:18:30;;;;;;;9.55;4.75;;;;;;;;;;6147892;23;20025;-70
2024/04/03 00:21:03;;;;;;;11.27;4.05;;;;;;;;;;6147517;23;20078;-71
2024/04/03 00:23:29;;;;;;;9.75;5.05;;;;;;;;;;6151144;23;20075;-69
2024/04/03 00:25:56;;;;;;;9.52;4.25;;;;;;;;;;6143929;23;20104;-70
2024/04/03 00:28:21;;;;;;;11.57;5.45;;;;;;;;;;6143859;23;20021;-71
2024/04/03 00:30:46;;;;;;;9.38;4.70;;;;;;;;;;6140041;23;20029;-70
2024/04/03 00:33:12;;;;;;;11.25;5.03;;;;;;;;;;6150019;23;20029;-70
2024/04/03 00:35:37;;;;;;;10.27;4.82;;;;;;;;;;6125850;23;20048;-71
2024/04/03 00:38:03;;;;;;;11.32;4.82;;;;;;;;;;6144467;23;20032;-70
2024/04/03 00:40:28;;;;;;;12.20;5.32;;;;;;;;;;6151179;23;20439;-69
2024/04/03 00:42:54;;;;;;;9.27;5.68;;;;;;;;;;6138755;23;20024;-70
2024/04/03 00:45:19;;;;;;;9.40;5.30;;;;;;;;;;6145665;23;20033;-69
2024/04/03 00:47:45;;;;;;;14.70;5.75;;;;;;;;;;6150633;23;20633;-70
2024/04/03 00:50:10;;;;;;;10.13;5.53;;;;;;;;;;6143980;23;20501;-69
2024/04/03 00:52:36;;;;;;;9.65;5.20;;;;;;;;;;6150496;23;20028;-70
2024/04/03 00:55:01;;;;;;;6.97;4.82;;;;;;;;;;6143833;23;20040;-70
2024/04/03 00:57:27;;;;;;;9.10;5.05;;;;;;;;;;6145876;23;20021;-71
2024/04/03 00:59:52;;;;;;;13.85;6.07;;;;;;;;;;6139058;23;20021;-72
2024/04/03 01:02:18;;;;;;;8.10;5.47;;;;;;;;;;6148435;23;20485;-70
2024/04/03 01:04:44;;;;;;;10.23;5.75;;;;;;;;;;6150816;23;20850;-70
2024/04/03 01:07:11;;;;;;;10.30;5.13;;;;;;;;;;6143627;23;20028;-71
2024/04/03 01:09:37;;;;;;;12.27;5.90;;;;;;;;;;6150507;23;20025;-70
2024/04/03 01:12:03;;;;;;;10.52;6.07;;;;;;;;;;6139215;23;20112;-71
2024/04/03 01:14:28;;;;;;;8.05;4.68;;;;;;;;;;6145676;23;20036;-70
2024/04/03 01:16:54;;;;;;;10.05;5.10;;;;;;;;;;6150943;23;20027;-70
2024/04/03 01:19:20;;;;;;;7.47;3.90;;;;;;;;;;6118076;23;20083;-70
2024/04/03 01:21:45;;;;;;;8.63;3.60;;;;;;;;;;6150376;23;20027;-70
2024/04/03 01:24:11;;;;;;;4.20;2.92;;;;;;;;;;6143884;23;20060;-70
2024/04/03 01:26:36;;;;;;;6.57;2.70;;;;;;;;;;6146158;23;20032;-70
2024/04/03 01:29:02;;;;;;;3.95;2.40;;;;;;;;;;6145565;23;20060;-70
2024/04/03 01:31:27;;;;;;;4.32;2.30;;;;;;;;;;6143565;23;20079;-71
2024/04/03 01:33:52;;;;;;;4.32;2.45;;;;;;;;;;6150053;23;20025;-70
2024/04/03 01:36:18;;;;;;;3.30;2.40;;;;;;;;;;6141027;23;20075;-70
2024/04/03 01:38:48;;;;;;;6.72;2.70;;;;;;;;;;6151168;23;20021;-70
2024/04/03 01:41:13;;;;;;;4.82;2.58;;;;;;;;;;6120008;23;20103;-71
2024/04/03 01:43:39;;;;;;;6.05;2.80;;;;;;;;;;6114477;23;20452;-70
2024/04/03 01:46:04;;;;;;;6.05;2.80;;;;;;;;;;6149788;23;20043;-71
2024/04/03 01:48:29;;;;;;;5.32;3.35;;;;;;;;;;6143272;23;20021;-70
2024/04/03 01:50:55;;;;;;;7.78;3.75;;;;;;;;;;6149517;23;20025;-70
2024/04/03 01:53:20;;;;;;;7.68;3.90;;;;;;;;;;6149898;23;20024;-71
2024/04/03 01:55:56;;;;;;;7.55;4.25;;;;;;;;;;6138161;23;20100;-70
2024/04/03 01:58:21;;;;;;;11.55;4.50;;;;;;;;;;6147310;23;20032;-71
2024/04/03 02:00:47;;;;;;;9.05;4.10;;;;;;;;;;6143122;23;20023;-71
2024/04/03 02:03:13;;;;;;;8.48;4.43;;;;;;;;;;6149784;23;20099;-70
2024/04/03 02:05:38;;;;;;;8.98;4.32;;;;;;;;;;6143725;23;20025;-71
2024/04/03 02:08:04;;;;;;;8.15;3.90;;;;;;;;;;6147659;23;20075;-71
2024/04/03 02:10:29;;;;;;;5.97;3.45;;;;;;;;;;6144374;23;20063;-70
2024/04/03 02:12:55;;;;;;;6.28;3.00;;;;;;;;;;6142203;23;20470;-70
2024/04/03 02:15:20;;;;;;;8.73;3.25;;;;;;;;;;6149569;23;20091;-70
2024/04/03 02:17:45;;;;;;;6.18;3.20;;;;;;;;;;6144364;23;20604;-70
2024/04/03 02:20:11;;;;;;;7.25;3.60;;;;;;;;;;6124619;23;20406;-70
2024/04/03 02:22:36;;;;;;;6.07;2.92;;;;;;;;;;6146621;23;20029;-70
2024/04/03 02:25:02;;;;;;;9.05;3.60;;;;;;;;;;6137522;23;20823;-70
2024/04/03 02:27:27;;;;;;;6.93;3.13;;;;;;;;;;6149510;23;20128;-70
2024/04/03 02:29:53;;;;;;;8.57;3.38;;;;;;;;;;6143311;23;20032;-70
2024/04/03 02:32:18;;;;;;;8.05;2.95;;;;;;;;;;6148842;23;20025;-70
2024/04/03 02:34:44;;;;;;;3.85;2.50;;;;;;;;;;6149714;23;20021;-71
2024/04/03 02:37:09;;;;;;;8.32;2.75;;;;;;;;;;6137217;23;20375;-70
2024/04/03 02:39:35;;;;;;;9.85;3.03;;;;;;;;;;6145857;23;20028;-70
2024/04/03 02:42:02;;;;;;;5.45;2.75;;;;;;;;;;6142875;23;20025;-70
2024/04/03 02:44:27;;;;;;;10.02;3.00;;;;;;;;;;6149014;23;20025;-70
2024/04/03 02:46:53;;;;;;;5.00;2.83;;;;;;;;;;6148260;23;20029;-70
2024/04/03 02:49:18;;;;;;;5.43;2.97;;;;;;;;;;6141921;23;20028;-70
2024/04/03 02:51:43;;;;;;;4.10;2.58;;;;;;;;;;6145384;23;20025;-70
2024/04/03 02:54:09;;;;;;;6.80;3.17;;;;;;;;;;6138644;23;20047;-73
2024/04/03 02:56:34;;;;;;;5.90;3.10;;;;;;;;;;6149650;23;20055;-72
2024/04/03 02:59:00;;;;;;;9.70;3.58;;;;;;;;;;6148023;23;20021;-69
2024/04/03 03:01:25;;;;;;;7.55;3.22;;;;;;;;;;6145643;23;20021;-70
2024/04/03 03:03:51;;;;;;;5.97;3.03;;;;;;;;;;6149696;23;20021;-70
2024/04/03 03:06:16;;;;;;;5.80;3.25;;;;;;;;;;6136138;23;20104;-71
2024/04/03 03:08:41;;;;;;;7.70;3.40;;;;;;;;;;6144999;23;20084;-70
2024/04/03 03:11:07;;;;;;;7.65;3.17;;;;;;;;;;6141482;23;20024;-70
2024/04/03 03:13:32;;;;;;;9.07;3.25;;;;;;;;;;6149369;23;20029;-70
2024/04/03 03:15:59;;;;;;;7.35;3.50;;;;;;;;;;6149185;23;20017;-70
2024/04/03 03:18:25;;;;;;;4.78;2.50;;;;;;;;;;6142849;23;20024;-70
2024/04/03 03:20:51;;;;;;;5.68;2.45;;;;;;;;;;6168265;23;20025;-70
2024/04/03 03:23:17;;;;;;;7.43;3.03;;;;;;;;;;6138771;23;20031;-70
2024/04/03 03:25:43;;;;;;;7.00;2.53;;;;;;;;;;6148192;23;20029;-70
2024/04/03 03:28:09;;;;;;;4.70;2.25;;;;;;;;;;6149134;23;20021;-70
2024/04/03 03:30:34;;;;;;;5.88;2.67;;;;;;;;;;6142435;23;20079;-71
2024/04/03 03:32:59;;;;;;;5.30;2.40;;;;;;;;;;6149202;23;20032;-70
2024/04/03 03:35:25;;;;;;;4.57;2.63;;;;;;;;;;6135871;23;20023;-71
2024/04/03 03:37:50;;;;;;;3.90;2.05;;;;;;;;;;6148202;23;20151;-71
2024/04/03 03:40:16;;;;;;;7.25;2.58;;;;;;;;;;6149084;23;20356;-70
2024/04/03 03:42:42;;;;;;;7.78;3.00;;;;;;;;;;6142367;23;20024;-70
2024/04/03 03:45:07;;;;;;;5.50;2.20;;;;;;;;;;6150111;23;20021;-72
2024/04/03 03:47:33;;;;;;;4.75;2.80;;;;;;;;;;6142474;23;20679;-70
2024/04/03 03:52:42;;;;;;;8.20;2.85;;;;;;;;;;6144566;23;20025;-70
2024/04/03 03:55:08;;;;;;;4.03;2.50;;;;;;;;;;6125789;23;20104;-69
2024/04/03 03:57:33;;;;;;;4.60;1.90;;;;;;;;;;6152378;23;20052;-70
2024/04/03 03:59:59;;;;;;;6.78;2.80;;;;;;;;;;6144755;23;20025;-70
2024/04/03 04:02:25;;;;;;;7.85;2.63;;;;;;;;;;6146459;23;20025;-71
2024/04/03 04:04:51;;;;;;;6.72;3.15;;;;;;;;;;6139500;23;20021;-71
2024/04/03 04:07:20;;;;;;;8.07;2.88;;;;;;;;;;6150672;23;20021;-70
2024/04/03 04:09:49;;;;;;;5.60;3.08;;;;;;;;;;6151617;23;20021;-70
2024/04/03 04:12:15;;;;;;;7.00;2.72;;;;;;;;;;6143809;23;20076;-71
2024/04/03 04:14:50;;;;;;;7.45;2.80;;;;;;;;;;6151187;23;20017;-70
2024/04/03 04:17:16;;;;;;;6.90;2.97;;;;;;;;;;6164185;23;20025;-69
2024/04/03 04:19:42;;;;;;;6.55;2.50;;;;;;;;;;6147558;23;20021;-70
2024/04/03 04:22:07;;;;;;;4.43;2.20;;;;;;;;;;6143765;23;20016;-70
2024/04/03 04:24:36;;;;;;;6.30;2.50;;;;;;;;;;6126882;23;20029;-70
2024/04/03 04:27:04;;;;;;;5.68;2.63;;;;;;;;;;6150830;23;20356;-70
2024/04/03 04:29:30;;;;;;;6.15;2.55;;;;;;;;;;6170397;23;20103;-70
2024/04/03 04:31:55;;;;;;;6.65;2.95;;;;;;;;;;6146464;23;20025;-70
2024/04/03 04:34:21;;;;;;;6.95;2.72;;;;;;;;;;6140165;23;20029;-71
2024/04/03 04:36:46;;;;;;;6.95;2.78;;;;;;;;;;6150523;23;20024;-71
2024/04/03 04:39:12;;;;;;;6.80;2.72;;;;;;;;;;6126210;23;20039;-71
2024/04/03 04:41:38;;;;;;;8.57;2.63;;;;;;;;;;6144176;23;20033;-71
2024/04/03 04:44:04;;;;;;;6.88;2.58;;;;;;;;;;6126467;23;20344;-71
2024/04/03 04:46:30;;;;;;;5.53;2.30;;;;;;;;;;6140358;23;20041;-71
2024/04/03 04:48:55;;;;;;;9.82;2.55;;;;;;;;;;6146870;23;20021;-71
2024/04/03 04:51:21;;;;;;;10.05;2.75;;;;;;;;;;6150097;23;20079;-72
2024/04/03 04:53:46;;;;;;;5.80;2.38;;;;;;;;;;6144885;23;20426;-72
2024/04/03 04:56:12;;;;;;;4.50;2.10;;;;;;;;;;6149939;23;20021;-72
2024/04/03 04:58:37;;;;;;;8.07;2.60;;;;;;;;;;6144198;23;20021;-72
2024/04/03 05:01:03;;;;;;;7.80;2.53;;;;;;;;;;6121014;23;20052;-72
2024/04/03 05:03:29;;;;;;;7.85;2.33;;;;;;;;;;6143766;23;20021;-72
2024/04/03 05:05:54;;;;;;;4.95;1.98;;;;;;;;;;6147447;23;20576;-72
2024/04/03 05:08:20;;;;;;;5.60;2.33;;;;;;;;;;6150120;23;20028;-72
2024/04/03 05:10:49;;;;;;;4.55;2.40;;;;;;;;;;6143265;23;20518;-72
2024/04/03 05:13:15;;;;;;;7.55;2.65;;;;;;;;;;6148891;23;20083;-73
2024/04/03 05:15:40;;;;;;;6.85;3.33;;;;;;;;;;6113283;23;20100;-72
2024/04/03 05:18:06;;;;;;;3.40;2.20;;;;;;;;;;6148110;23;20028;-72
2024/04/03 05:20:31;;;;;;;12.75;2.70;;;;;;;;;;6151270;23;20087;-72
2024/04/03 05:22:57;;;;;;;6.30;2.30;;;;;;;;;;6143911;23;20071;-72
2024/04/03 05:25:22;;;;;;;5.65;2.42;;;;;;;;;;6150275;23;20025;-72
2024/04/03 05:27:51;;;;;;;7.78;2.50;;;;;;;;;;6142560;23;20047;-71
2024/04/03 05:30:16;;;;;;;5.03;2.17;;;;;;;;;;6119795;23;20032;-71
2024/04/03 05:32:42;;;;;;;6.47;2.70;;;;;;;;;;6149392;23;20021;-71
2024/04/03 05:35:07;;;;;;;7.25;2.80;;;;;;;;;;6118462;23;20095;-70
2024/04/03 05:37:33;;;;;;;6.90;2.72;;;;;;;;;;6148922;23;20036;-70
2024/04/03 05:39:58;;;;;;;5.90;2.20;;;;;;;;;;6142635;23;20021;-72
2024/04/03 05:42:23;;;;;;;4.65;2.30;;;;;;;;;;6145270;23;20032;-72
2024/04/03 05:44:49;;;;;;;5.03;2.35;;;;;;;;;;6145293;23;20025;-72
2024/04/03 05:47:14;;;;;;;7.13;2.58;;;;;;;;;;6142530;23;20029;-72
2024/04/03 05:49:40;;;;;;;7.18;2.67;;;;;;;;;;6150134;23;20048;-72
2024/04/03 05:52:06;;;;;;;6.47;2.78;;;;;;;;;;6143302;23;20028;-72
2024/04/03 05:54:31;;;;;;;8.80;3.08;;;;;;;;;;6151074;23;20024;-72
2024/04/03 05:56:56;;;;;;;5.60;2.65;;;;;;;;;;6139941;23;20020;-72
2024/04/03 05:59:22;;;;;;;7.03;3.15;;;;;;;;;;6144484;23;20499;-73
2024/04/03 06:01:47;;;;;;;10.55;3.50;;;;;;;;;;6149999;23;20021;-74
2024/04/03 06:04:13;;;;;;;8.45;3.50;;;;;;;;;;6142835;23;20091;-73
2024/04/03 06:06:39;;;;;;;11.60;3.00;;;;;;;;;;6150554;23;20055;-73
2024/04/03 06:09:04;;;;;;;8.93;3.70;;;;;;;;;;6143498;23;20028;-70
2024/04/03 06:11:30;;;;;;;5.68;2.88;;;;;;;;;;6145300;23;20020;-71
2024/04/03 06:13:55;;;;;;;7.88;3.30;;;;;;;;;;6145884;23;20021;-73
2024/04/03 06:16:21;;;;;;;14.13;3.60;;;;;;;;;;6144122;23;20024;-75
2024/04/03 06:18:46;;;;;;;9.65;2.95;;;;;;;;;;6150713;23;20025;-73
2024/04/03 06:21:18;;;;;;;8.15;2.83;;;;;;;;;;6143520;23;20029;-74
2024/04/03 06:23:43;;;;;;;8.13;2.75;;;;;;;;;;6150231;23;20052;-74
2024/04/03 06:26:09;;;;;;;7.82;2.95;;;;;;;;;;6120045;23;20025;-74
2024/04/03 06:28:34;;;;;;;7.13;2.83;;;;;;;;;;6140021;23;20476;-75
2024/04/03 06:30:59;;;;;;;11.18;3.00;;;;;;;;;;6151312;23;20065;-75
2024/04/03 06:33:25;;;;;;;11.30;3.45;;;;;;;;;;6143001;23;20044;-75
2024/04/03 06:35:51;;;;;;;9.20;3.03;;;;;;;;;;6150149;23;20092;-74
2024/04/03 06:38:16;;;;;;;9.27;3.13;;;;;;;;;;6167286;23;20039;-74
2024/04/03 06:40:42;;;;;;;8.38;3.05;;;;;;;;;;6143162;23;20024;-74
2024/04/03 06:43:08;;;;;;;9.10;3.03;;;;;;;;;;6147595;23;20021;-74
2024/04/03 06:45:34;;;;;;;8.48;3.25;;;;;;;;;;6169555;23;20033;-75
2024/04/03 06:47:59;;;;;;;8.45;2.75;;;;;;;;;;6150095;23;20021;-73
2024/04/03 06:50:25;;;;;;;9.93;3.10;;;;;;;;;;6144768;23;20494;-71
2024/04/03 06:52:50;;;;;;;8.23;3.08;;;;;;;;;;6147672;23;20068;-72
2024/04/03 06:55:16;;;;;;;8.80;2.92;;;;;;;;;;6143561;23;20020;-72
2024/04/03 06:57:42;;;;;;;10.93;3.00;;;;;;;;;;6142910;23;20039;-72
2024/04/03 07:00:09;;;;;;;6.63;2.60;;;;;;;;;;6149582;23;20074;-72
2024/04/03 07:02:34;;;;;;;6.03;2.42;;;;;;;;;;6143444;23;20025;-73
2024/04/03 07:04:59;;;;;;;9.43;2.85;;;;;;;;;;6150487;23;20028;-72
2024/04/03 07:07:25;;;;;;;7.32;2.58;;;;;;;;;;6146001;23;20025;-73
2024/04/03 07:09:50;;;;;;;8.30;2.90;;;;;;;;;;6138173;23;20025;-71
2024/04/03 07:12:16;;;;;;;9.00;2.40;;;;;;;;;;6149147;23;20025;-72
2024/04/03 07:14:41;;;;;;;6.45;2.05;;;;;;;;;;6143624;23;20040;-73
2024/04/03 07:17:07;;;;;;;5.57;2.17;;;;;;;;;;6149216;23;20025;-72
2024/04/03 07:19:32;;;;;;;7.90;2.42;;;;;;;;;;6125614;23;20021;-72
2024/04/03 07:21:58;;;;;;;6.43;2.28;;;;;;;;;;6138242;23;20092;-71
2024/04/03 07:24:24;;;;;;;7.25;2.55;;;;;;;;;;6144824;23;20057;-71
2024/04/03 07:26:50;;;;;;;5.82;2.22;;;;;;;;;;6142493;23;20025;-71
2024/04/03 07:29:18;;;;;;;7.85;2.47;;;;;;;;;;6125257;23;20029;-72
2024/04/03 07:31:43;;;;;;;9.50;2.28;;;;;;;;;;6118269;23;20477;-72
2024/04/03 07:34:08;;;;;;;5.88;1.98;;;;;;;;;;6148693;23;20021;-71
2024/04/03 07:36:34;;;;;;;7.03;2.38;;;;;;;;;;6145589;23;20025;-72
2024/04/03 07:39:00;;;;;;;8.90;2.60;;;;;;;;;;6115020;23;20029;-71
2024/04/03 07:41:28;;;;;;;6.68;2.13;;;;;;;;;;6124093;23;20155;-71
2024/04/03 07:43:53;;;;;;;6.55;2.40;;;;;;;;;;6142661;23;20064;-72
2024/04/03 07:46:19;;;;;;;3.72;2.22;;;;;;;;;;6149106;23;20025;-71
2024/04/03 07:48:45;;;;;;;4.70;1.92;;;;;;;;;;6149953;23;20641;-72
2024/04/03 07:51:10;;;;;;;5.95;1.85;;;;;;;;;;6137158;23;20142;-72
2024/04/03 07:53:36;;;;;;;5.15;2.15;;;;;;;;;;6147641;23;20031;-73
2024/04/03 07:56:03;;;;;;;7.57;2.13;;;;;;;;;;6143191;23;20446;-73
2024/04/03 07:58:29;;;;;;;7.70;2.20;;;;;;;;;;6149155;23;20029;-73
2024/04/03 08:00:58;;;;;;;7.13;2.20;;;;;;;;;;6150442;23;20029;-73
2024/04/03 08:03:24;;;;;;;9.07;2.15;;;;;;;;;;6118790;23;20033;-74
2024/04/03 08:05:53;;;;;;;5.60;2.50;;;;;;;;;;6143849;23;20120;-72
2024/04/03 08:08:22;;;;;;;6.22;2.42;;;;;;;;;;6115602;23;20025;-73
2024/04/03 08:10:48;;;;;;;5.25;2.53;;;;;;;;;;6149437;23;20025;-72
2024/04/03 08:13:13;;;;;;;8.90;2.50;;;;;;;;;;6142920;23;20025;-72
2024/04/03 08:15:38;;;;;;;9.55;2.70;;;;;;;;;;6149390;23;20028;-71
2024/04/03 08:18:04;;;;;;;9.43;3.05;;;;;;;;;;6146170;23;20021;-73
2024/04/03 08:20:29;;;;;;;6.05;2.50;;;;;;;;;;6112328;23;20017;-72
2024/04/03 08:22:55;;;;;;;6.82;2.92;;;;;;;;;;6149449;23;20105;-72
2024/04/03 08:25:20;;;;;;;6.35;2.58;;;;;;;;;;6117358;23;20052;-71
2024/04/03 08:27:46;;;;;;;7.40;2.63;;;;;;;;;;6149652;23;20025;-71
2024/04/03 08:30:11;;;;;;;6.22;2.28;;;;;;;;;;6149392;23;20021;-71
2024/04/03 08:32:38;;;;;;;6.43;2.80;;;;;;;;;;6143784;23;20021;-72
2024/04/03 08:35:04;;;;;;;5.22;2.33;;;;;;;;;;6151312;23;20021;-72
2024/04/03 08:37:29;;;;;;;5.40;2.42;;;;;;;;;;6144763;23;20452;-71
2024/04/03 08:39:55;;;;;;;7.78;2.45;;;;;;;;;;6150758;23;20024;-72
2024/04/03 08:42:20;;;;;;;5.75;2.55;;;;;;;;;;6149713;23;20025;-71
2024/04/03 08:44:46;;;;;;;7.07;2.50;;;;;;;;;;6144114;23;20123;-71
2024/04/03 08:47:12;;;;;;;12.80;2.67;;;;;;;;;;6126418;23;20025;-71
2024/04/03 08:49:37;;;;;;;4.80;2.20;;;;;;;;;;6144308;23;20049;-72
2024/04/03 08:52:04;;;;;;;5.60;2.40;;;;;;;;;;6150965;23;20475;-72
2024/04/03 08:54:30;;;;;;;5.95;2.28;;;;;;;;;;6142088;23;20025;-71
2024/04/03 08:56:56;;;;;;;7.07;2.40;;;;;;;;;;6124464;23;20032;-71
2024/04/03 08:59:22;;;;;;;5.63;2.35;;;;;;;;;;6176043;23;20025;-71
2024/04/03 09:01:51;;;;;;;5.18;2.13;;;;;;;;;;6119394;23;20021;-71
2024/04/03 09:04:17;;;;;;;4.72;2.30;;;;;;;;;;6150973;23;20025;-71
2024/04/03 09:06:42;;;;;;;7.30;2.28;;;;;;;;;;6164469;23;20694;-71
2024/04/03 09:09:36;;;;;;;8.57;2.45;;;;;;;;;;6146134;23;20103;-71
2024/04/03 09:12:02;;;;;;;6.18;2.40;;;;;;;;;;6121014;23;20025;-71
2024/04/03 09:14:28;;;;;;;5.85;2.15;;;;;;;;;;6143912;23;20040;-71
2024/04/03 09:16:57;;;;;;;5.55;2.40;;;;;;;;;;6126586;23;20739;-71
2024/04/03 09:19:23;;;;;;;10.77;2.40;;;;;;;;;;6168331;23;20029;-72
2024/04/03 09:21:48;;;;;;;8.80;2.40;;;;;;;;;;6169026;23;20029;-73
2024/04/03 09:24:14;;;;;;;4.40;2.10;;;;;;;;;;6141718;23;20032;-71
2024/04/03 09:26:43;;;;;;;6.53;2.30;;;;;;;;;;6150144;23;20064;-71
2024/04/03 09:29:10;;;;;;;5.50;2.40;;;;;;;;;;6149501;23;20021;-70
2024/04/03 09:31:36;;;;;;;3.72;2.35;;;;;;;;;;6144098;23;20075;-72
2024/04/03 09:34:01;;;;;;;4.97;2.00;;;;;;;;;;6148722;23;20025;-70
2024/04/03 09:36:27;;;;;;;2.85;1.80;;;;;;;;;;6138305;23;20060;-71
2024/04/03 09:38:52;;;;;;;4.90;1.85;;;;;;;;;;6149580;23;20442;-70
2024/04/03 09:41:18;;;;;;;3.55;1.65;;;;;;;;;;6150238;23;20029;-70
2024/04/03 09:43:45;;;;;;;4.25;2.15;;;;;;;;;;6142885;23;20079;-70
2024/04/03 09:46:12;;;;;;;6.88;1.98;;;;;;;;;;6149621;23;20452;-72
2024/04/03 09:48:38;;;;;;;4.38;1.70;;;;;;;;;;6140113;23;20025;-71
2024/04/03 09:51:04;;;;;;;4.28;1.83;;;;;;;;;;6145254;23;20025;-70
2024/04/03 09:53:32;;;;;;;3.65;1.75;;;;;;;;;;6126206;23;20502;-71
2024/04/03 09:55:58;;;;;;;3.30;1.60;;;;;;;;;;6142903;23;20444;-70
2024/04/03 09:58:27;;;;;;;4.00;1.83;;;;;;;;;;6124864;23;20039;-70
2024/04/03 10:00:52;;;;;;;;;;;;;;;;;;6144985;23;20020;-70
2024/04/03 10:03:22;;;;;;;2.70;1.70;;;;;;;;;;6145189;23;20834;-71
2024/04/03 10:05:48;;;;;;;2.95;1.58;;;;;;;;;;6116129;23;20028;-71
2024/04/03 10:08:16;;;;;;;4.18;1.88;;;;;;;;;;6146445;23;20028;-71
2024/04/03 10:10:45;;;;;;;4.67;1.97;;;;;;;;;;6150448;23;20021;-70
2024/04/03 10:13:27;;;;;;;11.82;2.33;;;;;;;;;;6142894;23;20559;-70
2024/04/03 10:16:18;;;;;;;4.43;1.60;;;;;;;;;;6150509;23;20021;-72
2024/04/03 10:18:47;;;;;;;3.85;1.88;;;;;;;;;;6131981;23;20029;-70
2024/04/03 10:21:12;;;;;;;3.65;1.80;;;;;;;;;;6144063;23;20025;-72
2024/04/03 10:23:48;;;;;;;3.92;2.03;;;;;;;;;;6146894;23;20083;-71
2024/04/03 10:26:14;;;;;;;3.33;1.70;;;;;;;;;;6124128;23;20029;-70
2024/04/03 10:28:40;;;;;;;5.97;2.00;;;;;;;;;;6149978;23;20021;-70
2024/04/03 10:31:06;;;;;;;3.85;2.15;;;;;;;;;;6139586;23;20455;-69
2024/04/03 10:33:32;;;;;;;3.65;2.00;;;;;;;;;;6144938;23;20590;-70
2024/04/03 10:35:57;;;;;;;5.30;2.10;;;;;;;;;;6141750;23;20028;-72
2024/04/03 10:38:24;;;;;;;7.43;2.20;;;;;;;;;;6124518;23;20029;-70
2024/04/03 10:40:52;;;;;;;4.03;1.98;;;;;;;;;;6125309;23;20029;-71
2024/04/03 10:43:18;;;;;;;5.45;2.20;;;;;;;;;;6118413;23;20032;-70
2024/04/03 10:45:50;;;;;;;4.97;2.15;;;;;;;;;;6145558;23;20032;-69
2024/04/03 10:48:16;;;;;;;2.63;1.95;;;;;;;;;;6136726;23;20029;-70
2024/04/03 10:50:43;;;;;;;3.17;2.00;;;;;;;;;;6174135;23;20053;-70
2024/04/03 10:53:09;;;;;;;3.30;2.08;;;;;;;;;;6148097;23;20029;-72
2024/04/03 10:55:36;;;;;;;4.72;2.25;;;;;;;;;;6144645;23;20029;-71
2024/04/03 10:58:02;;;;;;;5.13;2.47;;;;;;;;;;6149523;23;20440;-70
2024/04/03 11:00:32;;;;;;;4.78;1.98;;;;;;;;;;6113738;23;20028;-71
2024/04/03 11:02:57;;;;;;;4.05;1.92;;;;;;;;;;6145262;23;20032;-71
2024/04/03 11:05:23;;;;;;;4.28;2.00;;;;;;;;;;6142274;23;20628;-70
2024/04/03 11:07:48;;;;;;;3.90;2.20;;;;;;;;;;6149449;23;20416;-71
2024/04/03 11:10:14;;;;;;;2.45;1.65;;;;;;;;;;6148869;23;20036;-71
2024/04/03 11:12:39;;;;;;;5.72;2.15;;;;;;;;;;6166664;23;20021;-71
2024/04/03 11:15:06;;;;;;;5.47;2.30;;;;;;;;;;6120306;23;20074;-70
2024/04/03 11:17:31;;;;;;;3.35;2.00;;;;;;;;;;6139183;23;21910;-71
2024/04/03 11:19:57;;;;;;;5.47;2.03;;;;;;;;;;6124843;23;20029;-69
2024/04/03 11:22:22;;;;;;;2.60;1.88;;;;;;;;;;6149008;23;20474;-69
2024/04/03 11:24:47;;;;;;;3.88;1.98;;;;;;;;;;6142927;23;20569;-69
2024/04/03 11:27:13;;;;;;;2.45;1.95;;;;;;;;;;6123955;23;20059;-69
2024/04/03 11:29:41;;;;;;;2.17;1.70;;;;;;;;;;6138061;23;20108;-69
2024/04/03 11:32:07;;;;;;;4.78;2.55;;;;;;;;;;6144353;23;20085;-70
2024/04/03 11:34:34;;;;;;;4.53;2.13;;;;;;;;;;6149512;23;20020;-69
2024/04/03 11:37:00;;;;;;;2.83;2.17;;;;;;;;;;6143031;23;20057;-69
2024/04/03 11:39:30;;;;;;;3.50;2.30;;;;;;;;;;6148249;23;20041;-69
2024/04/03 11:41:57;;;;;;;3.47;2.00;;;;;;;;;;6167071;23;20497;-70
2024/04/03 11:44:22;;;;;;;2.88;2.20;;;;;;;;;;6143681;23;20017;-70
2024/04/03 11:46:48;;;;;;;3.42;1.95;;;;;;;;;;6138421;23;20060;-69
2024/04/03 11:49:13;;;;;;;5.30;2.17;;;;;;;;;;6147825;23;20029;-69
2024/04/03 11:51:39;;;;;;;3.70;2.20;;;;;;;;;;6148682;23;20075;-69
2024/04/03 11:54:06;;;;;;;2.38;1.85;;;;;;;;;;6141296;23;20124;-70
2024/04/03 11:56:33;;;;;;;5.63;2.30;;;;;;;;;;6149588;23;20028;-69
2024/04/03 11:58:59;;;;;;;2.75;2.17;;;;;;;;;;6136568;23;20079;-70
2024/04/03 12:01:25;;;;;;;3.53;2.40;;;;;;;;;;6148399;23;20040;-70
2024/04/03 12:03:50;;;;;;;3.50;1.90;;;;;;;;;;6149221;23;20542;-70
2024/04/03 12:06:16;;;;;;;4.57;2.33;;;;;;;;;;6142798;23;20148;-70
2024/04/03 12:08:46;;;;;;;4.25;2.15;;;;;;;;;;6152048;23;20684;-69
2024/04/03 12:11:11;;;;;;;3.42;2.10;;;;;;;;;;6138963;23;20021;-69
2024/04/03 12:13:37;;;;;;;3.95;2.38;;;;;;;;;;6146784;23;20021;-70
2024/04/03 12:16:02;;;;;;;2.75;2.20;;;;;;;;;;6150199;23;20029;-68
2024/04/03 12:18:37;;;;;;;4.50;2.03;;;;;;;;;;6142551;23;20036;-69
2024/04/03 12:21:08;;;;;;;2.33;1.70;;;;;;;;;;6150944;23;20021;-68
2024/04/03 12:23:34;;;;;;;2.58;2.05;;;;;;;;;;6143052;23;20371;-68
2024/04/03 12:26:01;;;;;;;2.97;2.55;;;;;;;;;;6145611;23;20036;-71
2024/04/03 12:28:27;;;;;;;3.53;2.10;;;;;;;;;;6112150;23;20021;-71
2024/04/03 12:30:53;;;;;;;3.45;2.40;;;;;;;;;;6126239;23;20028;-68
2024/04/03 12:33:22;;;;;;;2.30;2.00;;;;;;;;;;6149528;23;20024;-69
2024/04/03 12:35:48;;;;;;;6.38;2.50;;;;;;;;;;6143078;23;20467;-68
2024/04/03 12:38:13;;;;;;;2.47;2.28;;;;;;;;;;6150073;23;20025;-70
2024/04/03 12:40:39;;;;;;;3.00;2.65;;;;;;;;;;6137593;23;20021;-69
2024/04/03 12:43:05;;;;;;;3.92;2.55;;;;;;;;;;6144017;23;20029;-70
2024/04/03 12:45:31;;;;;;;4.65;2.53;;;;;;;;;;6149009;23;20017;-70
2024/04/03 12:47:58;;;;;;;4.13;2.45;;;;;;;;;;6146121;23;20017;-68
2024/04/03 12:50:23;;;;;;;3.20;2.08;;;;;;;;;;6151002;23;20017;-69
2024/04/03 12:52:49;;;;;;;2.75;2.40;;;;;;;;;;6143217;23;20028;-68
2024/04/03 12:55:14;;;;;;;6.03;2.20;;;;;;;;;;6145080;23;20036;-68
2024/04/03 12:57:39;;;;;;;5.13;2.10;;;;;;;;;;6141483;23;20109;-70
2024/04/03 13:00:05;;;;;;;3.15;2.58;;;;;;;;;;6149368;23;20600;-69
2024/04/03 13:02:31;;;;;;;2.78;2.30;;;;;;;;;;6126180;23;20068;-69
2024/04/03 13:04:57;;;;;;;2.25;2.05;;;;;;;;;;6118999;23;20455;-69
2024/04/03 13:07:22;;;;;;;2.65;1.85;;;;;;;;;;6149377;23;20103;-68
2024/04/03 13:09:48;;;;;;;2.95;2.30;;;;;;;;;;6136366;23;20036;-70
2024/04/03 13:12:13;;;;;;;3.40;2.95;;;;;;;;;;6147266;23;20147;-70
2024/04/03 13:14:38;;;;;;;2.17;1.98;;;;;;;;;;6149946;23;20035;-70
2024/04/03 13:17:04;;;;;;;2.40;2.20;;;;;;;;;;6143581;23;20029;-70
2024/04/03 13:19:29;;;;;;;2.70;2.50;;;;;;;;;;6150646;23;20057;-69
2024/04/03 13:21:55;;;;;;;2.33;1.90;;;;;;;;;;6141147;23;20035;-70
2024/04/03 13:24:20;;;;;;;2.33;1.98;;;;;;;;;;6144729;23;20027;-68
2024/04/03 13:26:46;;;;;;;2.13;1.88;;;;;;;;;;6149753;23;20367;-70
2024/04/03 13:29:11;;;;;;;3.30;2.40;;;;;;;;;;6143748;23;20031;-69
2024/04/03 13:31:37;;;;;;;2.47;2.05;;;;;;;;;;6150390;23;20104;-70
2024/04/03 13:34:03;;;;;;;2.15;2.00;;;;;;;;;;6143335;23;20099;-69
2024/04/03 13:36:28;;;;;;;2.13;1.92;;;;;;;;;;6145707;23;20074;-69
2024/04/03 13:38:54;;;;;;;2.40;2.20;;;;;;;;;;6139697;23;20033;-68
2024/04/03 13:41:19;;;;;;;2.13;1.92;;;;;;;;;;6123393;23;20025;-69
2024/04/03 13:43:45;;;;;;;3.28;2.20;;;;;;;;;;6125271;23;20025;-70
2024/04/03 13:46:10;;;;;;;2.67;2.35;;;;;;;;;;6142531;23;20320;-69
2024/04/03 13:48:35;;;;;;;2.65;2.10;;;;;;;;;;6150297;23;20021;-69
2024/04/03 13:51:01;;;;;;;5.53;2.03;;;;;;;;;;6139934;23;20210;-68
2024/04/03 13:53:26;;;;;;;2.58;2.15;;;;;;;;;;6144305;23;20621;-69
2024/04/03 13:55:59;;;;;;;2.40;2.20;;;;;;;;;;6149808;23;20023;-69
2024/04/03 13:58:25;;;;;;;4.50;2.10;;;;;;;;;;6142525;23;20172;-69
2024/04/03 14:00:50;;;;;;;4.57;2.33;;;;;;;;;;6150939;23;20025;-70
2024/04/03 14:03:16;;;;;;;3.05;2.30;;;;;;;;;;6142618;23;20451;-69
2024/04/03 14:05:44;;;;;;;4.00;2.38;;;;;;;;;;6146036;23;20102;-69
2024/04/03 14:08:09;;;;;;;2.28;2.08;;;;;;;;;;6144475;23;20028;-68
2024/04/03 14:10:37;;;;;;;4.85;2.30;;;;;;;;;;6143118;23;20033;-70
2024/04/03 14:13:02;;;;;;;2.30;2.10;;;;;;;;;;6149971;23;20059;-68
2024/04/03 14:15:28;;;;;;;2.85;2.60;;;;;;;;;;6142678;23;20060;-69
2024/04/03 14:17:54;;;;;;;2.78;2.50;;;;;;;;;;6150273;23;20064;-68
2024/04/03 14:20:19;;;;;;;2.80;2.30;;;;;;;;;;6144806;23;20379;-70
2024/04/03 14:22:45;;;;;;;4.03;2.17;;;;;;;;;;6138758;23;20079;-68
2024/04/03 14:25:11;;;;;;;2.05;1.85;;;;;;;;;;6149282;23;20025;-69
2024/04/03 14:27:39;;;;;;;3.13;1.92;;;;;;;;;;6144792;23;20083;-70
2024/04/03 14:30:05;;;;;;;4.15;2.00;;;;;;;;;;6150085;23;20032;-70
2024/04/03 14:32:31;;;;;;;2.60;1.92;;;;;;;;;;6145040;23;20024;-68
2024/04/03 14:34:57;;;;;;;3.15;1.95;;;;;;;;;;6145532;23;20025;-69
2024/04/03 14:37:22;;;;;;;4.60;2.40;;;;;;;;;;6145729;23;20021;-68
2024/04/03 14:39:47;;;;;;;4.22;2.20;;;;;;;;;;6143990;23;20027;-68